Time;durP1;ratioP1;P1;durP2;ratioP2;P2;SDS_P1;SDS_P2;PMS_P1;PMS_P2;Temp;Humidity;BMP_temperature;BMP_pressure;BME280_temperature;BME280_humidity;BME280_pressure;Samples;Min_cycle;Max_cycle;Signal;HPM_P1;HPM_P2
2022/03/13 00:00:47;;;;;;;3.45;2.30;;;;;;;;;;5031784;28;20021;-72
2022/03/13 00:03:14;;;;;;;3.28;2.40;;;;;;;;;;5029262;28;20040;-73
2022/03/13 00:05:42;;;;;;;4.63;2.72;;;;;;;;;;5046445;28;20023;-73
2022/03/13 00:08:18;;;;;;;3.90;2.80;;;;;;;;;;5032144;28;20071;-72
2022/03/13 00:10:47;;;;;;;4.93;3.10;;;;;;;;;;5031528;28;20037;-73
2022/03/13 00:13:19;;;;;;;4.15;3.20;;;;;;;;;;5033216;28;20032;-72
2022/03/13 00:15:45;;;;;;;6.00;2.75;;;;;;;;;;5033120;28;20033;-73
2022/03/13 00:18:12;;;;;;;3.67;2.88;;;;;;;;;;5028842;28;20069;-73
2022/03/13 00:20:39;;;;;;;2.53;2.33;;;;;;;;;;5034874;28;20025;-72
2022/03/13 00:23:06;;;;;;;4.45;2.97;;;;;;;;;;5033315;28;20025;-73
2022/03/13 00:25:33;;;;;;;4.22;2.65;;;;;;;;;;5033159;28;20540;-72
2022/03/13 00:27:59;;;;;;;3.97;3.13;;;;;;;;;;5032994;28;20031;-73
2022/03/13 00:30:26;;;;;;;5.18;3.15;;;;;;;;;;5034189;28;20021;-73
2022/03/13 00:32:52;;;;;;;3.50;2.83;;;;;;;;;;5035137;28;20029;-73
2022/03/13 00:35:19;;;;;;;5.55;2.88;;;;;;;;;;5037529;28;20411;-73
2022/03/13 00:37:46;;;;;;;5.07;3.22;;;;;;;;;;5036867;28;20035;-73
2022/03/13 00:40:13;;;;;;;5.10;2.55;;;;;;;;;;5035447;28;20047;-73
2022/03/13 00:42:39;;;;;;;4.22;3.17;;;;;;;;;;5048418;28;20397;-73
2022/03/13 00:45:06;;;;;;;5.15;3.20;;;;;;;;;;5032986;28;20417;-73
2022/03/13 00:47:32;;;;;;;4.85;3.20;;;;;;;;;;5037588;28;20037;-73
2022/03/13 00:49:59;;;;;;;5.28;3.35;;;;;;;;;;5034545;28;20018;-73
2022/03/13 00:52:25;;;;;;;7.25;3.40;;;;;;;;;;5036469;28;20091;-73
2022/03/13 00:54:51;;;;;;;5.40;3.92;;;;;;;;;;5036474;28;20021;-73
2022/03/13 00:57:18;;;;;;;4.80;3.42;;;;;;;;;;5032422;28;20027;-73
2022/03/13 00:59:44;;;;;;;7.13;3.97;;;;;;;;;;5038071;28;20024;-72
2022/03/13 01:02:10;;;;;;;4.30;3.30;;;;;;;;;;5036672;28;20113;-72
2022/03/13 01:04:38;;;;;;;4.70;3.67;;;;;;;;;;5036052;28;20021;-73
2022/03/13 01:07:04;;;;;;;4.70;3.60;;;;;;;;;;5036368;28;20428;-73
2022/03/13 01:09:30;;;;;;;6.82;3.53;;;;;;;;;;5033732;28;20413;-73
2022/03/13 01:11:57;;;;;;;8.07;3.80;;;;;;;;;;5034262;28;20383;-73
2022/03/13 01:14:24;;;;;;;7.85;3.70;;;;;;;;;;5038169;28;20525;-73
2022/03/13 01:16:59;;;;;;;5.40;4.00;;;;;;;;;;5036308;28;20033;-73
2022/03/13 01:19:25;;;;;;;5.00;3.30;;;;;;;;;;5035895;28;20051;-73
2022/03/13 01:21:51;;;;;;;5.03;3.67;;;;;;;;;;5036119;28;20025;-73
2022/03/13 01:24:20;;;;;;;6.20;3.88;;;;;;;;;;5030548;28;20056;-73
2022/03/13 01:26:54;;;;;;;4.82;3.80;;;;;;;;;;5037092;28;20025;-73
2022/03/13 01:29:20;;;;;;;6.40;3.80;;;;;;;;;;5036118;28;20070;-73
2022/03/13 01:31:47;;;;;;;7.32;4.50;;;;;;;;;;5034633;28;20049;-73
2022/03/13 01:34:25;;;;;;;7.03;4.57;;;;;;;;;;5035839;28;20083;-73
2022/03/13 01:36:52;;;;;;;7.85;4.30;;;;;;;;;;5035814;28;20029;-72
2022/03/13 01:39:18;;;;;;;6.43;4.68;;;;;;;;;;5031087;28;20026;-73
2022/03/13 01:41:44;;;;;;;6.63;4.32;;;;;;;;;;5048308;28;20057;-73
2022/03/13 01:44:11;;;;;;;7.32;4.50;;;;;;;;;;5033801;28;20036;-73
2022/03/13 01:46:37;;;;;;;8.02;4.80;;;;;;;;;;5035726;28;20028;-73
2022/03/13 01:49:05;;;;;;;8.95;5.25;;;;;;;;;;5035645;28;20025;-73
2022/03/13 01:51:32;;;;;;;14.02;5.45;;;;;;;;;;5033110;28;20120;-73
2022/03/13 01:54:00;;;;;;;8.43;4.60;;;;;;;;;;5031900;28;20029;-73
2022/03/13 01:56:26;;;;;;;8.68;5.00;;;;;;;;;;5035830;28;20094;-73
2022/03/13 01:58:54;;;;;;;10.68;5.53;;;;;;;;;;5035306;28;20071;-73
2022/03/13 02:01:21;;;;;;;7.65;5.43;;;;;;;;;;5035172;28;20033;-73
2022/03/13 02:03:48;;;;;;;8.10;5.50;;;;;;;;;;5033814;28;20039;-73
2022/03/13 02:06:15;;;;;;;6.78;5.00;;;;;;;;;;5029852;28;20021;-73
2022/03/13 02:08:44;;;;;;;8.57;5.95;;;;;;;;;;5044212;28;20013;-73
2022/03/13 02:11:10;;;;;;;7.25;5.35;;;;;;;;;;5033683;28;20384;-73
2022/03/13 02:13:36;;;;;;;8.40;5.90;;;;;;;;;;5034100;28;20032;-72
2022/03/13 02:16:03;;;;;;;9.13;5.40;;;;;;;;;;5034595;28;20081;-73
2022/03/13 02:18:30;;;;;;;9.52;5.45;;;;;;;;;;5032769;28;20398;-73
2022/03/13 02:20:56;;;;;;;9.57;6.18;;;;;;;;;;5033423;28;20021;-73
2022/03/13 02:23:27;;;;;;;9.50;5.82;;;;;;;;;;5036408;28;20033;-72
2022/03/13 02:25:55;;;;;;;11.00;5.73;;;;;;;;;;5035228;28;20040;-73
2022/03/13 02:28:23;;;;;;;13.07;6.78;;;;;;;;;;5034604;28;20036;-73
2022/03/13 02:30:50;;;;;;;11.00;6.32;;;;;;;;;;5034273;28;20374;-73
2022/03/13 02:33:18;;;;;;;9.57;5.80;;;;;;;;;;5030497;28;20036;-73
2022/03/13 02:36:04;;;;;;;9.45;5.82;;;;;;;;;;5035906;28;20390;-73
2022/03/13 02:38:31;;;;;;;9.70;5.57;;;;;;;;;;5037064;28;20029;-73
2022/03/13 02:40:58;;;;;;;9.82;5.68;;;;;;;;;;5039934;28;20056;-73
2022/03/13 02:43:25;;;;;;;11.05;5.85;;;;;;;;;;5037891;28;20088;-73
2022/03/13 02:45:55;;;;;;;8.68;5.30;;;;;;;;;;5032841;28;20025;-73
2022/03/13 02:48:21;;;;;;;8.80;5.40;;;;;;;;;;5031049;28;20367;-73
2022/03/13 02:50:48;;;;;;;7.88;5.00;;;;;;;;;;5034635;28;20078;-73
2022/03/13 02:53:17;;;;;;;7.07;3.97;;;;;;;;;;5034934;28;20033;-73
2022/03/13 02:55:44;;;;;;;12.27;4.88;;;;;;;;;;5034237;28;20449;-73
2022/03/13 02:58:11;;;;;;;6.65;4.15;;;;;;;;;;5034198;28;20029;-73
2022/03/13 03:00:55;;;;;;;7.63;4.15;;;;;;;;;;5033095;28;20035;-73
2022/03/13 03:03:21;;;;;;;6.20;4.28;;;;;;;;;;5016399;28;20270;-73
2022/03/13 03:05:49;;;;;;;7.93;3.92;;;;;;;;;;5034697;28;20516;-72
2022/03/13 03:08:16;;;;;;;5.43;3.42;;;;;;;;;;5034935;28;20398;-73
2022/03/13 03:10:42;;;;;;;5.10;3.72;;;;;;;;;;5033867;28;20508;-73
2022/03/13 03:13:09;;;;;;;5.70;3.75;;;;;;;;;;5034102;28;20029;-73
2022/03/13 03:15:35;;;;;;;4.57;3.13;;;;;;;;;;5032332;28;20025;-73
2022/03/13 03:18:05;;;;;;;6.82;3.20;;;;;;;;;;5030872;28;20393;-73
2022/03/13 03:20:32;;;;;;;5.45;3.60;;;;;;;;;;5035941;28;20010;-73
2022/03/13 03:22:59;;;;;;;6.72;3.70;;;;;;;;;;5032510;28;20025;-73
2022/03/13 03:25:26;;;;;;;4.47;3.65;;;;;;;;;;5032122;28;20026;-73
2022/03/13 03:27:53;;;;;;;6.60;4.00;;;;;;;;;;5033697;28;20028;-73
2022/03/13 03:30:20;;;;;;;4.85;3.63;;;;;;;;;;5029847;28;20043;-73
2022/03/13 03:32:47;;;;;;;4.40;3.42;;;;;;;;;;5033864;28;20033;-73
2022/03/13 03:35:14;;;;;;;6.53;4.50;;;;;;;;;;5034141;28;20029;-73
2022/03/13 03:37:40;;;;;;;5.10;3.55;;;;;;;;;;5033640;28;20029;-73
2022/03/13 03:40:07;;;;;;;6.93;4.38;;;;;;;;;;5031788;28;20025;-73
2022/03/13 03:42:35;;;;;;;6.30;3.63;;;;;;;;;;5045161;28;20017;-73
2022/03/13 03:45:02;;;;;;;6.32;4.72;;;;;;;;;;5030570;28;20037;-73
2022/03/13 03:47:28;;;;;;;8.45;3.78;;;;;;;;;;5035321;28;20381;-73
2022/03/13 03:49:54;;;;;;;10.32;4.57;;;;;;;;;;5033379;28;20026;-73
2022/03/13 03:52:21;;;;;;;5.10;4.00;;;;;;;;;;5033361;28;20040;-73
2022/03/13 03:54:47;;;;;;;6.25;4.13;;;;;;;;;;5033337;28;20028;-72
2022/03/13 03:57:13;;;;;;;5.07;4.07;;;;;;;;;;5028757;28;20022;-73
2022/03/13 03:59:40;;;;;;;7.05;4.18;;;;;;;;;;5045193;28;20027;-73
2022/03/13 04:02:06;;;;;;;6.47;3.85;;;;;;;;;;5032452;28;20036;-73
2022/03/13 04:04:32;;;;;;;7.22;4.22;;;;;;;;;;5037192;28;20385;-72
2022/03/13 04:06:59;;;;;;;6.45;4.00;;;;;;;;;;5039921;28;20017;-73
2022/03/13 04:09:25;;;;;;;5.72;3.88;;;;;;;;;;5037006;28;20032;-73
2022/03/13 04:11:52;;;;;;;6.65;3.78;;;;;;;;;;5038962;28;20400;-73
2022/03/13 04:14:20;;;;;;;8.45;3.97;;;;;;;;;;5040753;28;20033;-73
2022/03/13 04:16:47;;;;;;;7.13;4.30;;;;;;;;;;5039769;28;20018;-73
2022/03/13 04:19:13;;;;;;;5.07;3.10;;;;;;;;;;5039856;28;20104;-73
2022/03/13 04:21:41;;;;;;;4.82;3.70;;;;;;;;;;5039001;28;20017;-73
2022/03/13 04:24:08;;;;;;;5.90;3.70;;;;;;;;;;5035990;28;20037;-73
2022/03/13 04:26:34;;;;;;;4.05;3.20;;;;;;;;;;5041172;28;20298;-73
2022/03/13 04:29:01;;;;;;;4.95;3.28;;;;;;;;;;5040018;28;20025;-72
2022/03/13 04:31:27;;;;;;;5.90;3.50;;;;;;;;;;5039820;28;20044;-72
2022/03/13 04:33:53;;;;;;;4.22;3.10;;;;;;;;;;5039741;28;20033;-73
2022/03/13 04:36:21;;;;;;;5.57;3.13;;;;;;;;;;5036047;28;20449;-73
2022/03/13 04:38:47;;;;;;;4.40;3.05;;;;;;;;;;5040218;28;20036;-74
2022/03/13 04:41:14;;;;;;;6.43;3.10;;;;;;;;;;5046550;28;20482;-73
2022/03/13 04:43:40;;;;;;;5.65;3.08;;;;;;;;;;5042145;28;20544;-73
2022/03/13 04:46:07;;;;;;;7.07;3.58;;;;;;;;;;5039606;28;20029;-73
2022/03/13 04:48:34;;;;;;;5.57;3.88;;;;;;;;;;5037925;28;20024;-73
2022/03/13 04:51:01;;;;;;;5.55;3.50;;;;;;;;;;5035311;28;20035;-72
2022/03/13 04:53:29;;;;;;;5.75;3.58;;;;;;;;;;5041371;28;20451;-73
2022/03/13 04:55:56;;;;;;;5.45;3.40;;;;;;;;;;5039169;28;20033;-73
2022/03/13 04:58:23;;;;;;;5.15;3.20;;;;;;;;;;5037933;28;20380;-73
2022/03/13 05:00:50;;;;;;;5.03;3.53;;;;;;;;;;5039722;28;20031;-73
2022/03/13 05:03:16;;;;;;;4.93;3.05;;;;;;;;;;5035231;28;20406;-73
2022/03/13 05:05:42;;;;;;;5.10;3.22;;;;;;;;;;5041017;28;20029;-73
2022/03/13 05:08:14;;;;;;;4.15;3.38;;;;;;;;;;5039084;28;20025;-73
2022/03/13 05:10:41;;;;;;;5.68;3.40;;;;;;;;;;5038759;28;20536;-73
2022/03/13 05:13:08;;;;;;;5.35;3.65;;;;;;;;;;5039719;28;20049;-73
2022/03/13 05:15:35;;;;;;;4.57;3.33;;;;;;;;;;5034445;28;20520;-73
2022/03/13 05:18:01;;;;;;;5.45;3.63;;;;;;;;;;5034156;28;20024;-73
2022/03/13 05:20:28;;;;;;;4.88;3.22;;;;;;;;;;5036458;28;20520;-73
2022/03/13 05:22:55;;;;;;;6.70;3.65;;;;;;;;;;5034497;28;20030;-73
2022/03/13 05:25:23;;;;;;;4.50;3.42;;;;;;;;;;5035744;28;20029;-73
2022/03/13 05:27:53;;;;;;;4.57;3.20;;;;;;;;;;5035853;28;20428;-72
2022/03/13 05:30:20;;;;;;;4.32;3.03;;;;;;;;;;5032553;28;20029;-73
2022/03/13 05:32:47;;;;;;;6.07;2.88;;;;;;;;;;5036586;28;20037;-73
2022/03/13 05:35:14;;;;;;;4.35;3.35;;;;;;;;;;5035199;28;20021;-73
2022/03/13 05:37:40;;;;;;;5.78;3.35;;;;;;;;;;5036243;28;20025;-73
2022/03/13 05:40:07;;;;;;;5.63;3.72;;;;;;;;;;5031934;28;20405;-73
2022/03/13 05:42:33;;;;;;;5.40;3.88;;;;;;;;;;5047088;28;20052;-72
2022/03/13 05:45:00;;;;;;;4.80;3.30;;;;;;;;;;5033546;28;20029;-73
2022/03/13 05:47:26;;;;;;;6.75;3.28;;;;;;;;;;5037476;28;20025;-72
2022/03/13 05:49:53;;;;;;;5.07;3.17;;;;;;;;;;5034341;28;20500;-73
2022/03/13 05:52:20;;;;;;;5.85;3.30;;;;;;;;;;5035641;28;20048;-73
2022/03/13 05:54:46;;;;;;;4.65;3.00;;;;;;;;;;5035236;28;20021;-74
2022/03/13 05:57:12;;;;;;;3.08;2.08;;;;;;;;;;5014328;28;20033;-73
2022/03/13 05:59:39;;;;;;;4.55;2.72;;;;;;;;;;5037367;28;20029;-73
2022/03/13 06:02:06;;;;;;;4.57;2.50;;;;;;;;;;5033896;28;20027;-73
2022/03/13 06:04:35;;;;;;;3.47;2.80;;;;;;;;;;5034128;28;20495;-73
2022/03/13 06:07:01;;;;;;;4.40;2.80;;;;;;;;;;5035494;28;20482;-72
2022/03/13 06:09:27;;;;;;;3.63;2.60;;;;;;;;;;5032139;28;20106;-73
2022/03/13 06:11:54;;;;;;;5.45;2.70;;;;;;;;;;5032804;28;20048;-73
2022/03/13 06:14:20;;;;;;;4.88;2.80;;;;;;;;;;5036551;28;20026;-73
2022/03/13 06:16:46;;;;;;;4.72;2.80;;;;;;;;;;5035064;28;20017;-73
2022/03/13 06:19:13;;;;;;;3.50;2.40;;;;;;;;;;5034932;28;20027;-73
2022/03/13 06:21:40;;;;;;;3.47;2.40;;;;;;;;;;5034114;28;20486;-73
2022/03/13 06:24:07;;;;;;;3.25;2.05;;;;;;;;;;5031027;28;20010;-73
2022/03/13 06:26:34;;;;;;;3.88;2.30;;;;;;;;;;5036483;28;20051;-73
2022/03/13 06:29:01;;;;;;;2.55;2.00;;;;;;;;;;5035204;28;20026;-73
2022/03/13 06:31:27;;;;;;;2.83;2.05;;;;;;;;;;5034669;28;20440;-73
2022/03/13 06:33:53;;;;;;;5.53;3.30;;;;;;;;;;5034865;28;20405;-73
2022/03/13 06:36:20;;;;;;;3.25;2.15;;;;;;;;;;5029740;28;20410;-73
2022/03/13 06:38:46;;;;;;;3.67;2.17;;;;;;;;;;5035196;28;20021;-73
2022/03/13 06:41:13;;;;;;;3.40;2.20;;;;;;;;;;5041222;28;20049;-73
2022/03/13 06:43:40;;;;;;;2.33;2.00;;;;;;;;;;5039002;28;20063;-73
2022/03/13 06:46:06;;;;;;;2.55;1.90;;;;;;;;;;5034734;28;20033;-73
2022/03/13 06:48:32;;;;;;;2.75;1.98;;;;;;;;;;5032284;28;20021;-73
2022/03/13 06:50:59;;;;;;;2.13;1.67;;;;;;;;;;5032128;28;20032;-73
2022/03/13 06:53:25;;;;;;;2.72;1.90;;;;;;;;;;5033994;28;20041;-73
2022/03/13 06:55:52;;;;;;;2.40;1.77;;;;;;;;;;5034209;28;20013;-73
2022/03/13 06:58:19;;;;;;;2.40;2.00;;;;;;;;;;5034299;28;20033;-73
2022/03/13 07:00:47;;;;;;;2.53;2.00;;;;;;;;;;5034129;28;20043;-73
2022/03/13 07:03:13;;;;;;;3.67;1.90;;;;;;;;;;5014184;28;20022;-73
2022/03/13 07:05:41;;;;;;;3.63;2.33;;;;;;;;;;5035642;28;20516;-72
2022/03/13 07:08:07;;;;;;;3.50;2.20;;;;;;;;;;5033959;28;20032;-73
2022/03/13 07:10:34;;;;;;;3.17;1.70;;;;;;;;;;5034233;28;20032;-73
2022/03/13 07:13:00;;;;;;;3.90;2.08;;;;;;;;;;5033935;28;20033;-73
2022/03/13 07:15:27;;;;;;;6.13;2.58;;;;;;;;;;5029858;28;20028;-72
2022/03/13 07:17:54;;;;;;;3.42;2.40;;;;;;;;;;5033419;28;20025;-73
2022/03/13 07:20:20;;;;;;;3.92;2.47;;;;;;;;;;5033179;28;20048;-73
2022/03/13 07:22:47;;;;;;;3.90;2.25;;;;;;;;;;5034020;28;20027;-73
2022/03/13 07:25:14;;;;;;;4.18;2.42;;;;;;;;;;5033844;28;20025;-73
2022/03/13 07:27:40;;;;;;;3.35;2.22;;;;;;;;;;5032924;28;20024;-73
2022/03/13 07:30:08;;;;;;;3.03;2.00;;;;;;;;;;5030035;28;20033;-73
2022/03/13 07:32:35;;;;;;;2.40;1.85;;;;;;;;;;5034449;28;20037;-73
2022/03/13 07:35:02;;;;;;;2.65;1.77;;;;;;;;;;5033311;28;20026;-73
2022/03/13 07:37:28;;;;;;;3.63;1.88;;;;;;;;;;5033642;28;20029;-73
2022/03/13 07:39:55;;;;;;;1.80;1.52;;;;;;;;;;5029553;28;20025;-73
2022/03/13 07:42:22;;;;;;;2.92;1.67;;;;;;;;;;5044994;28;20041;-73
2022/03/13 07:44:48;;;;;;;2.38;1.95;;;;;;;;;;5033936;28;20047;-73
2022/03/13 07:47:14;;;;;;;1.67;1.58;;;;;;;;;;5034184;28;20031;-73
2022/03/13 07:49:41;;;;;;;2.65;1.80;;;;;;;;;;5032890;28;20456;-73
2022/03/13 07:52:07;;;;;;;1.77;1.40;;;;;;;;;;5033327;28;20037;-73
2022/03/13 07:54:34;;;;;;;1.77;1.15;;;;;;;;;;5030254;28;20024;-73
2022/03/13 07:57:00;;;;;;;1.58;1.20;;;;;;;;;;5031353;28;20037;-73
2022/03/13 07:59:27;;;;;;;3.50;1.60;;;;;;;;;;5033537;28;20030;-73
2022/03/13 08:01:53;;;;;;;2.25;1.30;;;;;;;;;;5033606;28;20034;-73
2022/03/13 08:04:19;;;;;;;3.92;1.35;;;;;;;;;;5033082;28;20544;-73
2022/03/13 08:06:46;;;;;;;1.65;1.17;;;;;;;;;;5033429;28;20027;-73
2022/03/13 08:09:12;;;;;;;1.20;1.10;;;;;;;;;;5029197;28;20030;-72
2022/03/13 08:11:39;;;;;;;2.30;1.25;;;;;;;;;;5035111;28;20044;-72
2022/03/13 08:14:10;;;;;;;1.20;1.10;;;;;;;;;;5032993;28;20018;-73
2022/03/13 08:16:36;;;;;;;2.72;1.30;;;;;;;;;;5033043;28;20560;-73
2022/03/13 08:19:03;;;;;;;1.92;1.27;;;;;;;;;;5032041;28;20024;-73
2022/03/13 08:21:29;;;;;;;2.45;1.25;;;;;;;;;;5030666;28;20030;-73
2022/03/13 08:23:56;;;;;;;6.95;1.38;;;;;;;;;;5030978;28;20037;-73
2022/03/13 08:26:22;;;;;;;2.03;1.50;;;;;;;;;;5034489;28;20422;-73
2022/03/13 08:28:48;;;;;;;3.90;1.48;;;;;;;;;;5033059;28;20029;-73
2022/03/13 08:31:15;;;;;;;2.03;1.20;;;;;;;;;;5033020;28;20032;-73
2022/03/13 08:33:43;;;;;;;1.80;1.50;;;;;;;;;;5031056;28;20029;-73
2022/03/13 08:36:09;;;;;;;1.52;1.08;;;;;;;;;;5028636;28;20024;-73
2022/03/13 08:38:35;;;;;;;1.80;1.15;;;;;;;;;;5034065;28;20036;-73
2022/03/13 08:41:02;;;;;;;1.90;1.25;;;;;;;;;;5038664;28;20044;-73
2022/03/13 08:43:28;;;;;;;1.50;1.23;;;;;;;;;;5038508;28;20029;-72
2022/03/13 08:45:55;;;;;;;1.83;1.20;;;;;;;;;;5033113;28;20023;-73
2022/03/13 08:48:21;;;;;;;2.00;1.25;;;;;;;;;;5029080;28;20025;-73
2022/03/13 08:50:47;;;;;;;1.58;1.23;;;;;;;;;;5036187;28;20102;-73
2022/03/13 08:53:14;;;;;;;3.05;1.75;;;;;;;;;;5035367;28;20482;-73
2022/03/13 08:55:40;;;;;;;1.45;1.30;;;;;;;;;;5036735;28;20040;-73
2022/03/13 08:58:07;;;;;;;2.28;1.30;;;;;;;;;;5036543;28;20027;-73
2022/03/13 09:00:35;;;;;;;3.05;1.70;;;;;;;;;;5034760;28;20021;-73
2022/03/13 09:03:01;;;;;;;1.50;1.13;;;;;;;;;;5033789;28;20020;-73
2022/03/13 09:05:27;;;;;;;1.83;1.40;;;;;;;;;;5038513;28;20037;-73
2022/03/13 09:07:54;;;;;;;2.10;1.30;;;;;;;;;;5036086;28;20522;-73
2022/03/13 09:10:20;;;;;;;3.17;1.25;;;;;;;;;;5036376;28;20398;-73
2022/03/13 09:12:47;;;;;;;3.42;1.80;;;;;;;;;;5034855;28;20037;-73
2022/03/13 09:15:13;;;;;;;2.53;1.90;;;;;;;;;;5031109;28;20022;-73
2022/03/13 09:17:39;;;;;;;2.90;1.83;;;;;;;;;;5037699;28;20033;-73
2022/03/13 09:20:06;;;;;;;2.00;1.58;;;;;;;;;;5036369;28;20048;-73
2022/03/13 09:22:34;;;;;;;7.15;2.10;;;;;;;;;;5036122;28;20409;-72
2022/03/13 09:25:00;;;;;;;2.13;1.73;;;;;;;;;;5036084;28;20013;-72
2022/03/13 09:27:27;;;;;;;2.55;1.83;;;;;;;;;;5033009;28;20047;-73
2022/03/13 09:29:57;;;;;;;2.92;1.83;;;;;;;;;;5035203;28;20022;-72
2022/03/13 09:32:25;;;;;;;2.45;1.65;;;;;;;;;;5037299;28;20048;-72
2022/03/13 09:34:51;;;;;;;7.05;1.70;;;;;;;;;;5035920;28;20316;-73
2022/03/13 09:37:17;;;;;;;6.30;1.90;;;;;;;;;;5035708;28;20040;-73
2022/03/13 09:39:44;;;;;;;2.40;1.50;;;;;;;;;;5031518;28;20017;-73
2022/03/13 09:42:11;;;;;;;2.10;1.67;;;;;;;;;;5047433;28;20442;-73
2022/03/13 09:44:37;;;;;;;2.33;1.50;;;;;;;;;;5037725;28;20032;-72
2022/03/13 09:47:05;;;;;;;4.95;1.33;;;;;;;;;;5035697;28;20029;-72
2022/03/13 09:49:32;;;;;;;2.72;1.60;;;;;;;;;;5035780;28;20018;-72
2022/03/13 09:51:59;;;;;;;2.80;1.65;;;;;;;;;;5033955;28;20029;-73
2022/03/13 09:54:25;;;;;;;1.90;1.23;;;;;;;;;;5031185;28;20497;-73
2022/03/13 09:56:52;;;;;;;2.42;1.60;;;;;;;;;;5035309;28;20022;-73
2022/03/13 09:59:19;;;;;;;11.90;3.65;;;;;;;;;;5041465;28;20020;-71
2022/03/13 10:01:45;;;;;;;10.25;2.15;;;;;;;;;;5034384;28;20033;-72
2022/03/13 10:04:12;;;;;;;4.40;1.30;;;;;;;;;;5035679;28;20036;-71
2022/03/13 10:06:57;;;;;;;28.45;1.80;;;;;;;;;;5033999;28;20035;-71
2022/03/13 10:09:25;;;;;;;5.05;1.20;;;;;;;;;;5017490;28;20028;-71
2022/03/13 10:12:04;;;;;;;8.43;0.95;;;;;;;;;;5035204;28;20033;-71
2022/03/13 10:14:31;;;;;;;1.10;1.02;;;;;;;;;;5036575;28;20026;-71
2022/03/13 10:16:57;;;;;;;7.40;1.48;;;;;;;;;;5035470;28;20025;-71
2022/03/13 10:19:27;;;;;;;1.27;0.95;;;;;;;;;;5035150;28;20036;-71
2022/03/13 10:22:07;;;;;;;9.88;1.27;;;;;;;;;;5034943;28;20021;-72
2022/03/13 10:24:46;;;;;;;1.85;1.00;;;;;;;;;;5033032;28;20096;-72
2022/03/13 10:27:14;;;;;;;4.70;1.10;;;;;;;;;;5030634;28;20030;-71
2022/03/13 10:29:42;;;;;;;7.38;1.10;;;;;;;;;;5036464;28;20063;-72
2022/03/13 10:32:09;;;;;;;0.50;0.50;;;;;;;;;;5033251;28;20030;-72
2022/03/13 10:34:35;;;;;;;2.95;0.77;;;;;;;;;;5033240;28;20483;-72
2022/03/13 10:37:02;;;;;;;1.38;0.80;;;;;;;;;;5035062;28;20024;-72
2022/03/13 10:39:29;;;;;;;1.17;0.75;;;;;;;;;;5030144;28;20084;-73
2022/03/13 10:42:01;;;;;;;1.75;0.75;;;;;;;;;;5047040;28;20065;-72
2022/03/13 10:44:30;;;;;;;0.70;0.70;;;;;;;;;;5034470;28;20025;-72
2022/03/13 10:46:57;;;;;;;0.77;0.70;;;;;;;;;;5034383;28;20037;-72
2022/03/13 10:49:46;;;;;;;1.85;0.60;;;;;;;;;;5034453;28;20038;-72
2022/03/13 10:52:27;;;;;;;0.75;0.45;;;;;;;;;;5034514;28;20537;-72
2022/03/13 10:54:54;;;;;;;0.68;0.57;;;;;;;;;;5034427;28;20512;-71
2022/03/13 10:57:21;;;;;;;0.25;0.25;;;;;;;;;;5030630;28;20106;-71
2022/03/13 11:00:06;;;;;;;0.90;0.40;;;;;;;;;;5035184;28;20026;-71
2022/03/13 11:02:32;;;;;;;0.38;0.38;;;;;;;;;;5035204;28;20106;-72
2022/03/13 11:05:00;;;;;;;1.52;0.35;;;;;;;;;;5034382;28;20486;-71
2022/03/13 11:07:27;;;;;;;0.50;0.50;;;;;;;;;;5034081;28;20510;-72
2022/03/13 11:09:54;;;;;;;3.42;0.60;;;;;;;;;;5032743;28;20031;-71
2022/03/13 11:12:21;;;;;;;0.60;0.47;;;;;;;;;;5028014;28;20033;-71
2022/03/13 11:14:52;;;;;;;0.45;0.45;;;;;;;;;;5034306;28;20490;-71
2022/03/13 11:17:22;;;;;;;0.10;0.10;;;;;;;;;;5033634;28;20539;-71
2022/03/13 11:19:49;;;;;;;0.80;0.40;;;;;;;;;;5033967;28;20379;-70
2022/03/13 11:22:18;;;;;;;0.10;0.10;;;;;;;;;;5034238;28;20470;-71
2022/03/13 11:24:44;;;;;;;0.45;0.38;;;;;;;;;;5033451;28;20021;-71
2022/03/13 11:27:12;;;;;;;0.57;0.35;;;;;;;;;;5029398;28;20413;-71
2022/03/13 11:29:43;;;;;;;0.20;0.20;;;;;;;;;;5035887;28;20029;-70
2022/03/13 11:32:28;;;;;;;0.10;0.10;;;;;;;;;;5033739;28;20029;-69
2022/03/13 11:35:18;;;;;;;4.80;0.17;;;;;;;;;;5033749;28;20444;-69
2022/03/13 11:37:45;;;;;;;0.20;0.20;;;;;;;;;;5033647;28;20022;-69
2022/03/13 11:40:13;;;;;;;0.10;0.10;;;;;;;;;;5032085;28;20033;-69
2022/03/13 11:42:49;;;;;;;2.45;0.38;;;;;;;;;;5045037;28;20029;-69
2022/03/13 11:45:34;;;;;;;0.98;0.60;;;;;;;;;;5029556;28;20030;-69
2022/03/13 11:48:19;;;;;;;1.02;0.30;;;;;;;;;;5044436;28;20021;-70
2022/03/13 11:50:48;;;;;;;1.20;0.22;;;;;;;;;;5043138;28;20029;-69
2022/03/13 11:53:25;;;;;;;0.40;0.40;;;;;;;;;;5032616;28;20506;-70
2022/03/13 11:55:58;;;;;;;1.02;0.68;;;;;;;;;;5033206;28;20032;-69
2022/03/13 11:58:45;;;;;;;5.55;0.45;;;;;;;;;;5033566;28;20025;-69
2022/03/13 12:01:35;;;;;;;0.10;0.10;;;;;;;;;;5033653;28;20018;-70
2022/03/13 12:04:04;;;;;;;0.08;0.08;;;;;;;;;;5030332;28;20040;-70
2022/03/13 12:06:51;;;;;;;0.55;0.43;;;;;;;;;;5031075;28;20051;-70
2022/03/13 12:09:21;;;;;;;0.08;0.08;;;;;;;;;;5013591;28;20022;-71
2022/03/13 12:11:59;;;;;;;0.10;0.10;;;;;;;;;;5034329;28;20034;-70
2022/03/13 12:14:44;;;;;;;0.10;0.10;;;;;;;;;;5035054;28;20014;-70
2022/03/13 12:17:15;;;;;;;0.10;0.10;;;;;;;;;;5033376;28;20025;-70
2022/03/13 12:19:45;;;;;;;1.65;0.52;;;;;;;;;;5033187;28;20025;-71
2022/03/13 12:22:11;;;;;;;2.80;0.30;;;;;;;;;;5033301;28;20503;-70
2022/03/13 12:24:38;;;;;;;0.43;0.35;;;;;;;;;;5014427;28;20025;-71
2022/03/13 12:27:05;;;;;;;2.65;0.55;;;;;;;;;;5033237;28;20048;-70
2022/03/13 12:29:35;;;;;;;0.00;0.00;;;;;;;;;;5037635;28;20689;-70
2022/03/13 12:32:01;;;;;;;0.10;0.10;;;;;;;;;;5035687;28;20037;-70
2022/03/13 12:34:29;;;;;;;0.10;0.10;;;;;;;;;;5037540;28;20029;-70
2022/03/13 12:37:01;;;;;;;0.10;0.10;;;;;;;;;;5037043;28;20029;-70
2022/03/13 12:39:29;;;;;;;4.47;0.60;;;;;;;;;;5031918;28;20027;-69
2022/03/13 12:42:00;;;;;;;0.30;0.30;;;;;;;;;;5048324;28;20049;-71
2022/03/13 12:44:30;;;;;;;0.00;0.00;;;;;;;;;;5036792;28;20048;-70
2022/03/13 12:46:57;;;;;;;0.08;0.08;;;;;;;;;;5036936;28;20032;-69
2022/03/13 12:49:28;;;;;;;0.10;0.10;;;;;;;;;;5035493;28;20037;-70
2022/03/13 12:51:55;;;;;;;0.30;0.30;;;;;;;;;;5036704;28;20035;-70
2022/03/13 12:54:22;;;;;;;0.40;0.40;;;;;;;;;;5032950;28;20032;-70
2022/03/13 12:56:49;;;;;;;0.30;0.30;;;;;;;;;;5037662;28;20021;-70
2022/03/13 12:59:29;;;;;;;0.00;0.00;;;;;;;;;;5035717;28;20036;-70
2022/03/13 13:02:09;;;;;;;0.00;0.00;;;;;;;;;;5036469;28;20028;-70
2022/03/13 13:04:36;;;;;;;0.00;0.00;;;;;;;;;;5037054;28;20038;-69
2022/03/13 13:07:07;;;;;;;0.10;0.10;;;;;;;;;;5035401;28;20058;-70
2022/03/13 13:09:36;;;;;;;0.10;0.10;;;;;;;;;;5032465;28;20030;-70
2022/03/13 13:12:02;;;;;;;0.10;0.10;;;;;;;;;;5033821;28;20049;-70
2022/03/13 13:14:30;;;;;;;0.32;0.32;;;;;;;;;;5038443;28;20029;-70
2022/03/13 13:16:57;;;;;;;0.28;0.20;;;;;;;;;;5036235;28;20038;-70
2022/03/13 13:19:24;;;;;;;1.55;1.20;;;;;;;;;;5036343;28;20025;-70
2022/03/13 13:22:01;;;;;;;3.40;1.38;;;;;;;;;;5036325;28;20033;-70
2022/03/13 13:24:35;;;;;;;1.98;1.05;;;;;;;;;;5031693;28;20034;-70
2022/03/13 13:27:10;;;;;;;1.10;0.65;;;;;;;;;;5033865;28;20071;-71
2022/03/13 13:29:40;;;;;;;1.08;0.68;;;;;;;;;;5037794;28;20025;-70
2022/03/13 13:32:36;;;;;;;3.90;2.00;;;;;;;;;;5035982;28;20047;-70
2022/03/13 13:35:15;;;;;;;0.20;0.20;;;;;;;;;;5030177;28;20048;-70
2022/03/13 13:37:58;;;;;;;0.88;0.63;;;;;;;;;;5034886;28;20040;-70
2022/03/13 13:40:25;;;;;;;1.67;0.80;;;;;;;;;;5036211;28;20070;-70
2022/03/13 13:42:55;;;;;;;1.40;0.77;;;;;;;;;;5046803;28;20017;-70
2022/03/13 13:45:21;;;;;;;0.10;0.10;;;;;;;;;;5030568;28;20027;-70
2022/03/13 13:47:47;;;;;;;2.70;1.27;;;;;;;;;;5036938;28;20022;-70
2022/03/13 13:50:18;;;;;;;2.83;1.08;;;;;;;;;;5034522;28;20528;-70
2022/03/13 13:52:44;;;;;;;4.50;1.20;;;;;;;;;;5035483;28;20397;-70
2022/03/13 13:55:34;;;;;;;1.55;0.77;;;;;;;;;;5035850;28;20017;-70
2022/03/13 13:58:20;;;;;;;2.42;0.82;;;;;;;;;;5035494;28;20025;-70
2022/03/13 14:00:47;;;;;;;0.60;0.50;;;;;;;;;;5035592;28;20036;-70
2022/03/13 14:03:13;;;;;;;0.47;0.47;;;;;;;;;;5031371;28;20030;-70
2022/03/13 14:05:40;;;;;;;0.68;0.60;;;;;;;;;;5037378;28;20028;-70
2022/03/13 14:08:07;;;;;;;2.13;0.50;;;;;;;;;;5035043;28;20507;-70
2022/03/13 14:10:34;;;;;;;0.63;0.60;;;;;;;;;;5035510;28;20075;-70
2022/03/13 14:13:01;;;;;;;2.78;0.55;;;;;;;;;;5035257;28;20029;-70
2022/03/13 14:15:32;;;;;;;7.63;0.77;;;;;;;;;;5032543;28;20035;-70
2022/03/13 14:17:59;;;;;;;3.78;1.10;;;;;;;;;;5034014;28;20017;-70
2022/03/13 14:20:26;;;;;;;6.40;2.20;;;;;;;;;;5036705;28;20040;-70
2022/03/13 14:22:53;;;;;;;11.88;4.15;;;;;;;;;;5034769;28;20494;-69
2022/03/13 14:25:21;;;;;;;7.32;1.73;;;;;;;;;;5033770;28;20024;-70
2022/03/13 14:27:47;;;;;;;6.75;2.03;;;;;;;;;;5033008;28;20035;-70
2022/03/13 14:30:14;;;;;;;1.75;0.98;;;;;;;;;;5030606;28;20028;-70
2022/03/13 14:32:43;;;;;;;1.05;0.40;;;;;;;;;;5036709;28;20052;-70
2022/03/13 14:35:09;;;;;;;0.75;0.55;;;;;;;;;;5034448;28;20022;-68
2022/03/13 14:37:35;;;;;;;7.65;1.33;;;;;;;;;;5034890;28;20564;-70
2022/03/13 14:40:02;;;;;;;2.88;1.40;;;;;;;;;;5030635;28;20055;-70
2022/03/13 14:42:29;;;;;;;2.55;1.30;;;;;;;;;;5046008;28;20024;-70
2022/03/13 14:44:55;;;;;;;5.90;2.83;;;;;;;;;;5034197;28;20044;-69
2022/03/13 14:47:22;;;;;;;6.05;1.63;;;;;;;;;;5035406;28;20587;-69
2022/03/13 14:49:49;;;;;;;2.80;1.15;;;;;;;;;;5034179;28;20025;-69